sensor_id;sensor_type;location;lat;lon;timestamp;pressure;altitude;pressure_sealevel;temperature;humidity
4123;BME280;2075;51.062;6.920;2023-03-21T00:00:19;94308.31;;;-144.48;76.62
4123;BME280;2075;51.062;6.920;2023-03-21T00:03:04;94292.03;;;-144.48;76.82
4123;BME280;2075;51.062;6.920;2023-03-21T00:05:50;94306.28;;;-144.48;77.10
4123;BME280;2075;51.062;6.920;2023-03-21T00:08:37;94312.38;;;-144.48;77.41
4123;BME280;2075;51.062;6.920;2023-03-21T00:11:23;94326.59;;;-144.48;78.08
4123;BME280;2075;51.062;6.920;2023-03-21T00:14:09;94324.56;;;-144.48;78.60
4123;BME280;2075;51.062;6.920;2023-03-21T00:16:58;94273.75;;;-144.48;79.45
4123;BME280;2075;51.062;6.920;2023-03-21T00:19:43;94330.66;;;-144.48;78.91
4123;BME280;2075;51.062;6.920;2023-03-21T00:22:29;94334.72;;;-144.48;80.28
4123;BME280;2075;51.062;6.920;2023-03-21T00:25:15;94334.72;;;-144.48;80.24
4123;BME280;2075;51.062;6.920;2023-03-21T00:28:02;94334.72;;;-144.48;81.04
4123;BME280;2075;51.062;6.920;2023-03-21T00:30:47;94300.19;;;-144.48;80.13
4123;BME280;2075;51.062;6.920;2023-03-21T00:33:33;94320.50;;;-144.48;80.58
4123;BME280;2075;51.062;6.920;2023-03-21T00:36:20;94365.19;;;-144.48;82.13
4123;BME280;2075;51.062;6.920;2023-03-21T00:39:08;94338.78;;;-144.48;82.92
4123;BME280;2075;51.062;6.920;2023-03-21T00:41:54;94316.44;;;-144.48;82.41
4123;BME280;2075;51.062;6.920;2023-03-21T00:44:43;94318.47;;;-144.48;82.68
4123;BME280;2075;51.062;6.920;2023-03-21T00:47:28;94302.22;;;-144.48;82.81
4123;BME280;2075;51.062;6.920;2023-03-21T00:50:14;94346.91;;;-144.48;82.76
4123;BME280;2075;51.062;6.920;2023-03-21T00:53:00;94340.81;;;-144.48;82.94
4123;BME280;2075;51.062;6.920;2023-03-21T00:55:45;94302.22;;;-144.48;82.95
4123;BME280;2075;51.062;6.920;2023-03-21T00:58:32;94322.53;;;-144.48;83.56
4123;BME280;2075;51.062;6.920;2023-03-21T01:01:18;94298.16;;;-144.48;83.33
4123;BME280;2075;51.062;6.920;2023-03-21T01:04:04;94318.47;;;-144.48;83.94
4123;BME280;2075;51.062;6.920;2023-03-21T01:06:51;94350.97;;;-144.48;84.86
4123;BME280;2075;51.062;6.920;2023-03-21T01:09:37;94338.78;;;-144.48;85.60
4123;BME280;2075;51.062;6.920;2023-03-21T01:12:22;94292.03;;;-144.48;86.00
4123;BME280;2075;51.062;6.920;2023-03-21T01:15:08;94322.53;;;-144.48;85.60
4123;BME280;2075;51.062;6.920;2023-03-21T01:17:55;94298.16;;;-144.48;85.05
4123;BME280;2075;51.062;6.920;2023-03-21T01:20:41;94298.16;;;-144.48;85.44
4123;BME280;2075;51.062;6.920;2023-03-21T01:23:28;94245.31;;;-144.48;84.92
4123;BME280;2075;51.062;6.920;2023-03-21T01:26:14;94322.53;;;-144.48;85.65
4123;BME280;2075;51.062;6.920;2023-03-21T01:29:01;94302.22;;;-144.48;84.49
4123;BME280;2075;51.062;6.920;2023-03-21T01:31:46;94344.88;;;-144.48;85.34
4123;BME280;2075;51.062;6.920;2023-03-21T01:34:33;94202.66;;;-144.48;85.00
4123;BME280;2075;51.062;6.920;2023-03-21T01:37:19;94304.25;;;-144.48;85.03
4123;BME280;2075;51.062;6.920;2023-03-21T01:40:09;94298.16;;;-144.48;85.28
4123;BME280;2075;51.062;6.920;2023-03-21T01:42:57;94298.16;;;-144.48;85.42
4123;BME280;2075;51.062;6.920;2023-03-21T01:49:50;94287.97;;;-144.48;84.76
4123;BME280;2075;51.062;6.920;2023-03-21T01:52:38;94322.53;;;-144.48;84.40
4123;BME280;2075;51.062;6.920;2023-03-21T01:55:31;94290.00;;;-144.48;83.34
4123;BME280;2075;51.062;6.920;2023-03-21T01:58:20;94245.31;;;-144.48;84.34
4123;BME280;2075;51.062;6.920;2023-03-21T02:01:35;94275.78;;;-144.48;85.02
4123;BME280;2075;51.062;6.920;2023-03-21T02:04:21;94306.28;;;-144.48;85.42
4123;BME280;2075;51.062;6.920;2023-03-21T02:07:37;94273.75;;;-144.48;85.84
4123;BME280;2075;51.062;6.920;2023-03-21T02:10:27;94281.88;;;-144.48;85.56
4123;BME280;2075;51.062;6.920;2023-03-21T02:13:14;94259.53;;;-144.48;85.77
4123;BME280;2075;51.062;6.920;2023-03-21T02:16:01;94306.28;;;-144.48;85.95
4123;BME280;2075;51.062;6.920;2023-03-21T02:18:57;94263.59;;;-144.48;87.15
4123;BME280;2075;51.062;6.920;2023-03-21T02:26:00;94294.09;;;-144.48;86.76
4123;BME280;2075;51.062;6.920;2023-03-21T02:28:54;94273.75;;;-144.48;86.98
4123;BME280;2075;51.062;6.920;2023-03-21T02:31:41;94222.97;;;-144.48;87.27
4123;BME280;2075;51.062;6.920;2023-03-21T02:34:53;94287.97;;;-144.48;87.16
4123;BME280;2075;51.062;6.920;2023-03-21T02:37:47;94261.56;;;-144.48;87.40
4123;BME280;2075;51.062;6.920;2023-03-21T02:40:39;94245.31;;;-144.48;87.00
4123;BME280;2075;51.062;6.920;2023-03-21T02:43:30;94287.97;;;-144.48;87.45
4123;BME280;2075;51.062;6.920;2023-03-21T02:46:21;94235.16;;;-144.48;87.58
4123;BME280;2075;51.062;6.920;2023-03-21T02:49:15;94259.53;;;-144.48;87.46
4123;BME280;2075;51.062;6.920;2023-03-21T02:52:05;94261.56;;;-144.48;87.52
4123;BME280;2075;51.062;6.920;2023-03-21T02:54:54;94255.47;;;-144.48;88.23
4123;BME280;2075;51.062;6.920;2023-03-21T02:57:44;94253.44;;;-144.48;88.61
4123;BME280;2075;51.062;6.920;2023-03-21T03:00:32;94239.22;;;-144.48;88.56
4123;BME280;2075;51.062;6.920;2023-03-21T03:03:20;94294.09;;;-144.48;87.56
4123;BME280;2075;51.062;6.920;2023-03-21T03:06:09;94287.97;;;-144.48;88.11
4123;BME280;2075;51.062;6.920;2023-03-21T03:09:10;94245.31;;;-144.48;87.78
4123;BME280;2075;51.062;6.920;2023-03-21T03:12:03;94237.19;;;-144.48;88.36
4123;BME280;2075;51.062;6.920;2023-03-21T03:14:55;94233.13;;;-144.48;88.35
4123;BME280;2075;51.062;6.920;2023-03-21T03:17:50;94241.25;;;-144.48;88.27
4123;BME280;2075;51.062;6.920;2023-03-21T03:20:43;94231.09;;;-144.48;88.29
4123;BME280;2075;51.062;6.920;2023-03-21T03:23:39;94241.25;;;-144.48;89.34
4123;BME280;2075;51.062;6.920;2023-03-21T03:26:30;94239.22;;;-144.48;90.10
4123;BME280;2075;51.062;6.920;2023-03-21T03:29:19;94216.88;;;-144.48;91.57
4123;BME280;2075;51.062;6.920;2023-03-21T03:32:10;94222.97;;;-144.48;92.28
4123;BME280;2075;51.062;6.920;2023-03-21T03:34:59;94184.38;;;-144.48;93.01
4123;BME280;2075;51.062;6.920;2023-03-21T03:37:53;94198.59;;;-144.48;92.87
4123;BME280;2075;51.062;6.920;2023-03-21T03:40:44;94123.44;;;-144.48;95.38
4123;BME280;2075;51.062;6.920;2023-03-21T03:43:45;94078.72;;;-144.48;96.19
4123;BME280;2075;51.062;6.920;2023-03-21T03:46:39;94005.59;;;-144.48;96.77
4123;BME280;2075;51.062;6.920;2023-03-21T03:49:30;94042.16;;;-144.48;96.54
4123;BME280;2075;51.062;6.920;2023-03-21T03:52:23;93981.22;;;-144.48;97.29
4123;BME280;2075;51.062;6.920;2023-03-21T03:55:21;93899.97;;;-144.48;97.07
4123;BME280;2075;51.062;6.920;2023-03-21T03:58:08;93914.19;;;-144.48;97.19
4123;BME280;2075;51.062;6.920;2023-03-21T04:00:54;93895.91;;;-144.48;97.44
4123;BME280;2075;51.062;6.920;2023-03-21T04:03:44;93928.41;;;-144.48;97.63
4123;BME280;2075;51.062;6.920;2023-03-21T04:06:30;93830.88;;;-144.48;97.66
4123;BME280;2075;51.062;6.920;2023-03-21T04:09:17;93893.88;;;-144.48;97.01
4123;BME280;2075;51.062;6.920;2023-03-21T04:12:03;93875.59;;;-144.48;97.26
4123;BME280;2075;51.062;6.920;2023-03-21T04:14:49;93893.88;;;-144.48;97.06
4123;BME280;2075;51.062;6.920;2023-03-21T04:17:35;93958.88;;;-144.48;96.13
4123;BME280;2075;51.062;6.920;2023-03-21T04:20:22;93948.72;;;-144.48;96.24
4123;BME280;2075;51.062;6.920;2023-03-21T04:23:08;93993.41;;;-144.48;95.80
4123;BME280;2075;51.062;6.920;2023-03-21T04:25:55;93940.59;;;-144.48;96.18
4123;BME280;2075;51.062;6.920;2023-03-21T04:28:43;93912.16;;;-144.48;96.55
4123;BME280;2075;51.062;6.920;2023-03-21T04:31:54;93867.47;;;-144.48;96.81
4123;BME280;2075;51.062;6.920;2023-03-21T04:34:40;93891.84;;;-144.48;96.31
4123;BME280;2075;51.062;6.920;2023-03-21T04:37:27;93906.06;;;-144.48;96.22
4123;BME280;2075;51.062;6.920;2023-03-21T04:40:17;93916.22;;;-144.48;96.05
4123;BME280;2075;51.062;6.920;2023-03-21T04:43:03;93893.88;;;-144.48;96.59
4123;BME280;2075;51.062;6.920;2023-03-21T04:45:48;93816.66;;;-144.48;97.34
4123;BME280;2075;51.062;6.920;2023-03-21T04:48:35;93948.72;;;-144.48;95.66
4123;BME280;2075;51.062;6.920;2023-03-21T04:51:21;93979.19;;;-144.48;95.55
4123;BME280;2075;51.062;6.920;2023-03-21T04:54:08;93971.06;;;-144.48;96.05
4123;BME280;2075;51.062;6.920;2023-03-21T04:56:56;94208.75;;;-144.48;96.10
4123;BME280;2075;51.062;6.920;2023-03-21T04:59:44;93944.66;;;-144.48;96.06
4123;BME280;2075;51.062;6.920;2023-03-21T05:02:29;93944.66;;;-144.48;95.90
4123;BME280;2075;51.062;6.920;2023-03-21T05:05:16;93952.78;;;-144.48;96.54
4123;BME280;2075;51.062;6.920;2023-03-21T05:08:03;93906.06;;;-144.48;96.08
4123;BME280;2075;51.062;6.920;2023-03-21T05:10:50;93989.34;;;-144.48;95.40
4123;BME280;2075;51.062;6.920;2023-03-21T05:13:36;94021.84;;;-144.48;95.26
4123;BME280;2075;51.062;6.920;2023-03-21T05:16:22;94013.72;;;-144.48;95.45
4123;BME280;2075;51.062;6.920;2023-03-21T05:19:10;94001.53;;;-144.48;96.14
4123;BME280;2075;51.062;6.920;2023-03-21T05:21:58;93908.09;;;-144.48;96.34
4123;BME280;2075;51.062;6.920;2023-03-21T05:24:47;93936.53;;;-144.48;95.91
4123;BME280;2075;51.062;6.920;2023-03-21T05:27:49;94034.03;;;-144.48;95.17
4123;BME280;2075;51.062;6.920;2023-03-21T05:30:40;93975.13;;;-144.48;95.60
4123;BME280;2075;51.062;6.920;2023-03-21T05:33:25;93964.97;;;-144.48;95.50
4123;BME280;2075;51.062;6.920;2023-03-21T05:36:11;93977.16;;;-144.48;95.04
4123;BME280;2075;51.062;6.920;2023-03-21T05:38:56;93981.22;;;-144.48;95.68
4123;BME280;2075;51.062;6.920;2023-03-21T05:41:42;94021.84;;;-144.48;94.80
4123;BME280;2075;51.062;6.920;2023-03-21T05:44:29;93987.31;;;-144.48;95.02
4123;BME280;2075;51.062;6.920;2023-03-21T05:47:16;93753.69;;;-144.48;96.67
4123;BME280;2075;51.062;6.920;2023-03-21T05:50:05;93839.00;;;-144.48;96.51
4123;BME280;2075;51.062;6.920;2023-03-21T05:52:51;93814.63;;;-144.48;96.79
4123;BME280;2075;51.062;6.920;2023-03-21T05:55:37;93867.47;;;-144.48;95.97
4123;BME280;2075;51.062;6.920;2023-03-21T05:58:25;93747.59;;;-144.48;97.09
4123;BME280;2075;51.062;6.920;2023-03-21T06:01:13;93546.50;;;-144.48;97.95
4123;BME280;2075;51.062;6.920;2023-03-21T06:04:04;93264.19;;;-144.48;99.92
4123;BME280;2075;51.062;6.920;2023-03-21T06:06:51;92715.81;;;-144.48;100.00
4123;BME280;2075;51.062;6.920;2023-03-21T06:09:38;91662.03;;;-144.48;100.00
4123;BME280;2075;51.062;6.920;2023-03-21T06:12:25;90858.19;;;-144.48;100.00
4123;BME280;2075;51.062;6.920;2023-03-21T06:15:14;89928.72;;;-144.48;100.00
4123;BME280;2075;51.062;6.920;2023-03-21T06:18:11;89348.44;;;-144.48;100.00
4123;BME280;2075;51.062;6.920;2023-03-21T06:21:06;88666.84;;;-144.48;100.00
4123;BME280;2075;51.062;6.920;2023-03-21T06:23:52;87003.97;;;-144.48;100.00
4123;BME280;2075;51.062;6.920;2023-03-21T06:26:37;88062.44;;;-144.48;100.00
4123;BME280;2075;51.062;6.920;2023-03-21T06:29:22;88545.16;;;-144.48;100.00
4123;BME280;2075;51.062;6.920;2023-03-21T06:32:09;88924.47;;;-144.48;100.00
4123;BME280;2075;51.062;6.920;2023-03-21T06:34:56;88407.22;;;-144.48;100.00
4123;BME280;2075;51.062;6.920;2023-03-21T06:37:42;89697.41;;;-144.48;100.00
4123;BME280;2075;51.062;6.920;2023-03-21T06:40:29;89900.31;;;-144.48;100.00
4123;BME280;2075;51.062;6.920;2023-03-21T06:43:15;90716.13;;;-144.48;100.00
4123;BME280;2075;51.062;6.920;2023-03-21T06:46:01;92072.16;;;-144.48;100.00
4123;BME280;2075;51.062;6.920;2023-03-21T06:48:47;92405.13;;;-144.48;100.00
4123;BME280;2075;51.062;6.920;2023-03-21T06:51:33;92196.00;;;-144.48;100.00
4123;BME280;2075;51.062;6.920;2023-03-21T06:54:27;92100.56;;;-144.48;100.00
4123;BME280;2075;51.062;6.920;2023-03-21T06:57:25;92571.66;;;-144.48;100.00
4123;BME280;2075;51.062;6.920;2023-03-21T07:00:12;92352.34;;;-144.48;100.00
4123;BME280;2075;51.062;6.920;2023-03-21T07:03:02;92734.09;;;-144.48;100.00
4123;BME280;2075;51.062;6.920;2023-03-21T07:05:48;92419.34;;;-144.48;100.00
4123;BME280;2075;51.062;6.920;2023-03-21T07:08:35;92064.03;;;-144.48;100.00
4123;BME280;2075;51.062;6.920;2023-03-21T07:11:22;91254.00;;;-144.48;100.00
4123;BME280;2075;51.062;6.920;2023-03-21T07:14:08;90239.19;;;-144.48;100.00
4123;BME280;2075;51.062;6.920;2023-03-21T07:16:53;86787.06;;;-144.48;100.00
4123;BME280;2075;51.062;6.920;2023-03-21T07:19:39;78879.66;;;-144.48;100.00
4123;BME280;2075;51.062;6.920;2023-03-21T07:22:25;78545.94;;;-144.48;100.00
4123;BME280;2075;51.062;6.920;2023-03-21T07:25:12;68724.94;;;-144.48;100.00
4123;BME280;2075;51.062;6.920;2023-03-21T07:28:00;62487.13;;;-144.48;100.00
4123;BME280;2075;51.062;6.920;2023-03-21T07:30:51;56823.38;;;-144.48;100.00
4123;BME280;2075;51.062;6.920;2023-03-21T07:33:37;53738.03;;;-144.48;100.00
4123;BME280;2075;51.062;6.920;2023-03-21T07:36:23;47832.31;;;-144.48;100.00
4123;BME280;2075;51.062;6.920;2023-03-21T07:39:09;43473.84;;;-144.48;100.00
4123;BME280;2075;51.062;6.920;2023-03-21T07:41:56;41936.91;;;-144.48;100.00
4123;BME280;2075;51.062;6.920;2023-03-21T07:44:48;37330.31;;;-144.48;100.00
4123;BME280;2075;51.062;6.920;2023-03-21T07:47:35;41680.84;;;-144.48;100.00
4123;BME280;2075;51.062;6.920;2023-03-21T07:50:21;48602.03;;;-144.48;100.00
4123;BME280;2075;51.062;6.920;2023-03-21T07:53:06;48602.03;;;-144.48;100.00
4123;BME280;2075;51.062;6.920;2023-03-21T07:55:53;49115.28;;;-144.48;100.00
4123;BME280;2075;51.062;6.920;2023-03-21T07:58:41;50655.50;;;-144.48;100.00
4123;BME280;2075;51.062;6.920;2023-03-21T08:01:26;49628.63;;;-144.48;100.00
4123;BME280;2075;51.062;6.920;2023-03-21T08:04:12;53995.03;;;-144.48;100.00
4123;BME280;2075;51.062;6.920;2023-03-21T08:06:57;53481.06;;;-144.48;100.00
4123;BME280;2075;51.062;6.920;2023-03-21T08:09:43;52196.44;;;-144.48;100.00
4123;BME280;2075;51.062;6.920;2023-03-21T08:12:29;46549.84;;;-144.48;100.00
4123;BME280;2075;51.062;6.920;2023-03-21T08:15:15;42961.47;;;-144.48;100.00
4123;BME280;2075;51.062;6.920;2023-03-21T08:18:01;40912.69;;;-144.48;100.00
4123;BME280;2075;51.062;6.920;2023-03-21T08:20:50;30177.06;;;-144.48;100.00
4123;BME280;2075;51.062;6.920;2023-03-21T08:23:36;31708.63;;;-144.48;100.00
4123;BME280;2075;51.062;6.920;2023-03-21T08:26:21;24567.38;;;-144.48;100.00
4123;BME280;2075;51.062;6.920;2023-03-21T08:29:09;27371.03;;;-144.48;100.00
4123;BME280;2075;51.062;6.920;2023-03-21T08:31:56;28391.13;;;-144.48;100.00
4123;BME280;2075;51.062;6.920;2023-03-21T08:34:42;25331.78;;;-144.48;100.00
4123;BME280;2075;51.062;6.920;2023-03-21T08:37:27;24057.88;;;-144.48;100.00
4123;BME280;2075;51.062;6.920;2023-03-21T08:40:16;25586.63;;;-144.48;100.00
4123;BME280;2075;51.062;6.920;2023-03-21T08:43:01;25586.63;;;-144.48;100.00
4123;BME280;2075;51.062;6.920;2023-03-21T08:45:46;23293.75;;;-144.48;100.00
4123;BME280;2075;51.062;6.920;2023-03-21T08:48:33;24312.59;;;-144.48;100.00
4123;BME280;2075;51.062;6.920;2023-03-21T08:51:22;29666.69;;;-144.48;100.00
4123;BME280;2075;51.062;6.920;2023-03-21T08:54:17;24822.16;;;-144.48;100.00
4123;BME280;2075;51.062;6.920;2023-03-21T08:57:02;18967.13;;;-144.48;100.00
4123;BME280;2075;51.062;6.920;2023-03-21T08:59:48;15154.19;;;-144.48;100.00
4123;BME280;2075;51.062;6.920;2023-03-21T09:02:34;14646.13;;;-144.48;100.00
4123;BME280;2075;51.062;6.920;2023-03-21T09:05:21;14138.13;;;-144.48;100.00
4123;BME280;2075;51.062;6.920;2023-03-21T09:08:09;13376.31;;;-144.48;100.00
4123;BME280;2075;51.062;6.920;2023-03-21T09:10:56;14138.13;;;-144.48;100.00
4123;BME280;2075;51.062;6.920;2023-03-21T09:13:41;14646.13;;;-144.48;100.00
4123;BME280;2075;51.062;6.920;2023-03-21T09:16:27;15662.31;;;-144.48;100.00
4123;BME280;2075;51.062;6.920;2023-03-21T09:19:12;14392.13;;;-144.48;100.00
4123;BME280;2075;51.062;6.920;2023-03-21T09:22:00;13122.41;;;-144.48;100.00
4123;BME280;2075;51.062;6.920;2023-03-21T09:24:46;18967.13;;;-144.48;100.00
4123;BME280;2075;51.062;6.920;2023-03-21T09:27:33;16678.81;;;-144.48;100.00
4123;BME280;2075;51.062;6.920;2023-03-21T09:30:19;12360.81;;;-144.48;100.00
4123;BME280;2075;51.062;6.920;2023-03-21T09:33:05;13376.31;;;-144.48;100.00
4123;BME280;2075;51.062;6.920;2023-03-21T09:35:56;17187.19;;;-144.48;100.00
4123;BME280;2075;51.062;6.920;2023-03-21T09:38:45;30177.06;;;-144.48;100.00
4123;BME280;2075;51.062;6.920;2023-03-21T09:44:56;55023.25;;;-144.48;100.00
4123;BME280;2075;51.062;6.920;2023-03-21T09:47:46;69606.31;;;-144.48;100.00
4123;BME280;2075;51.062;6.920;2023-03-21T09:50:37;78260.78;;;-144.48;100.00
4123;BME280;2075;51.062;6.920;2023-03-21T09:53:27;54252.06;;;-144.48;100.00
4123;BME280;2075;51.062;6.920;2023-03-21T09:56:18;52196.44;;;-144.48;100.00
4123;BME280;2075;51.062;6.920;2023-03-21T09:59:06;45524.19;;;-144.48;100.00
4123;BME280;2075;51.062;6.920;2023-03-21T10:01:55;39376.91;;;-144.48;100.00
4123;BME280;2075;51.062;6.920;2023-03-21T10:04:44;38609.28;;;-144.48;100.00
4123;BME280;2075;51.062;6.920;2023-03-21T10:07:35;45524.19;;;-144.48;100.00
4123;BME280;2075;51.062;6.920;2023-03-21T10:10:24;45780.56;;;-144.48;100.00
4123;BME280;2075;51.062;6.920;2023-03-21T10:13:17;39632.81;;;-144.48;100.00
4123;BME280;2075;51.062;6.920;2023-03-21T10:16:11;50655.50;;;-144.48;100.00
4123;BME280;2075;51.062;6.920;2023-03-21T10:18:59;51939.56;;;-144.48;100.00
4123;BME280;2075;51.062;6.920;2023-03-21T10:21:48;55537.47;;;-144.48;100.00
4123;BME280;2075;51.062;6.920;2023-03-21T10:24:33;50398.75;;;-144.48;100.00
4123;BME280;2075;51.062;6.920;2023-03-21T10:27:19;52196.44;;;-144.48;100.00
4123;BME280;2075;51.062;6.920;2023-03-21T10:30:10;44242.59;;;-144.48;100.00
4123;BME280;2075;51.062;6.920;2023-03-21T10:33:06;41680.84;;;-144.48;100.00
4123;BME280;2075;51.062;6.920;2023-03-21T10:35:54;52196.44;;;-144.48;100.00
4123;BME280;2075;51.062;6.920;2023-03-21T10:38:44;51939.56;;;-144.48;100.00
4123;BME280;2075;51.062;6.920;2023-03-21T10:41:31;58367.09;;;-144.48;100.00
4123;BME280;2075;51.062;6.920;2023-03-21T10:44:18;54509.13;;;-144.48;100.00
4123;BME280;2075;51.062;6.920;2023-03-21T10:47:07;54509.13;;;-144.48;100.00
4123;BME280;2075;51.062;6.920;2023-03-21T10:49:53;47319.28;;;-144.48;100.00
4123;BME280;2075;51.062;6.920;2023-03-21T10:52:44;40144.72;;;-144.48;100.00
4123;BME280;2075;51.062;6.920;2023-03-21T10:55:32;41168.72;;;-144.48;100.00
4123;BME280;2075;51.062;6.920;2023-03-21T10:58:21;47062.78;;;-144.48;100.00
4123;BME280;2075;51.062;6.920;2023-03-21T11:01:13;55023.25;;;-144.48;100.00
4123;BME280;2075;51.062;6.920;2023-03-21T11:04:06;53481.06;;;-144.48;100.00
4123;BME280;2075;51.062;6.920;2023-03-21T11:06:54;51682.72;;;-144.48;100.00
4123;BME280;2075;51.062;6.920;2023-03-21T11:09:45;50912.28;;;-144.48;100.00
4123;BME280;2075;51.062;6.920;2023-03-21T11:12:34;49628.63;;;-144.48;100.00
4123;BME280;2075;51.062;6.920;2023-03-21T11:15:26;58367.09;;;-144.48;100.00
4123;BME280;2075;51.062;6.920;2023-03-21T11:18:16;72126.69;;;-144.48;100.00
4123;BME280;2075;51.062;6.920;2023-03-21T11:21:06;71432.34;;;-144.48;100.00
4123;BME280;2075;51.062;6.920;2023-03-21T11:23:53;76724.19;;;-144.48;100.00
4123;BME280;2075;51.062;6.920;2023-03-21T11:26:39;86858.00;;;-144.48;100.00
4123;BME280;2075;51.062;6.920;2023-03-21T11:29:30;91077.41;;;-144.48;100.00
4123;BME280;2075;51.062;6.920;2023-03-21T11:32:21;92707.72;;;-144.48;100.00
4123;BME280;2075;51.062;6.920;2023-03-21T11:35:15;92839.72;;;-144.48;100.00
4123;BME280;2075;51.062;6.920;2023-03-21T11:38:03;92703.66;;;-144.48;100.00
4123;BME280;2075;51.062;6.920;2023-03-21T11:40:52;92886.41;;;-144.48;100.00
4123;BME280;2075;51.062;6.920;2023-03-21T11:43:38;92250.81;;;-144.48;100.00
4123;BME280;2075;51.062;6.920;2023-03-21T11:46:26;90752.66;;;-144.48;100.00
4123;BME280;2075;51.062;6.920;2023-03-21T11:49:12;91235.72;;;-144.48;100.00
4123;BME280;2075;51.062;6.920;2023-03-21T11:52:04;91444.81;;;-144.48;100.00
4123;BME280;2075;51.062;6.920;2023-03-21T11:55:27;90758.75;;;-144.48;100.00
4123;BME280;2075;51.062;6.920;2023-03-21T11:58:31;89283.53;;;-144.48;100.00
4123;BME280;2075;51.062;6.920;2023-03-21T12:01:24;90602.47;;;-144.48;100.00
4123;BME280;2075;51.062;6.920;2023-03-21T12:04:20;86841.78;;;-144.48;100.00
4123;BME280;2075;51.062;6.920;2023-03-21T12:07:24;80880.59;;;-144.48;100.00
4123;BME280;2075;51.062;6.920;2023-03-21T12:10:30;66096.25;;;-144.48;100.00
4123;BME280;2075;51.062;6.920;2023-03-21T12:13:37;56051.78;;;-144.48;100.00
4123;BME280;2075;51.062;6.920;2023-03-21T12:16:32;56566.16;;;-144.48;100.00
4123;BME280;2075;51.062;6.920;2023-03-21T12:19:49;51939.56;;;-144.48;100.00
4123;BME280;2075;51.062;6.920;2023-03-21T12:22:47;57080.63;;;-144.48;100.00
4123;BME280;2075;51.062;6.920;2023-03-21T12:25:41;57852.44;;;-144.48;100.00
4123;BME280;2075;51.062;6.920;2023-03-21T12:28:38;57595.16;;;-144.48;100.00
4123;BME280;2075;51.062;6.920;2023-03-21T12:31:32;47062.78;;;-144.48;100.00
4123;BME280;2075;51.062;6.920;2023-03-21T12:34:32;40912.69;;;-144.48;100.00
4123;BME280;2075;51.062;6.920;2023-03-21T12:37:29;37841.84;;;-144.48;100.00
4123;BME280;2075;51.062;6.920;2023-03-21T12:40:23;47062.78;;;-144.48;100.00
4123;BME280;2075;51.062;6.920;2023-03-21T12:43:28;48602.03;;;-144.48;100.00
4123;BME280;2075;51.062;6.920;2023-03-21T12:46:20;48858.66;;;-144.48;100.00
4123;BME280;2075;51.062;6.920;2023-03-21T12:49:09;73731.88;;;-144.48;100.00
4123;BME280;2075;51.062;6.920;2023-03-21T12:52:01;84217.44;;;-144.48;100.00
4123;BME280;2075;51.062;6.920;2023-03-21T12:54:51;88098.97;;;-144.48;100.00
4123;BME280;2075;51.062;6.920;2023-03-21T12:57:40;88005.66;;;-144.48;100.00
4123;BME280;2075;51.062;6.920;2023-03-21T13:00:35;84525.38;;;-144.48;100.00
4123;BME280;2075;51.062;6.920;2023-03-21T13:03:25;87504.78;;;-144.48;100.00
4123;BME280;2075;51.062;6.920;2023-03-21T13:06:14;90365.03;;;-144.48;100.00
4123;BME280;2075;51.062;6.920;2023-03-21T13:09:05;90225.00;;;-144.48;100.00
4123;BME280;2075;51.062;6.920;2023-03-21T13:11:56;85958.00;;;-144.48;100.00
4123;BME280;2075;51.062;6.920;2023-03-21T13:14:51;90062.66;;;-144.48;100.00
4123;BME280;2075;51.062;6.920;2023-03-21T13:17:49;89297.72;;;-144.48;100.00
4123;BME280;2075;51.062;6.920;2023-03-21T13:20:43;91491.50;;;-144.48;100.00
4123;BME280;2075;51.062;6.920;2023-03-21T13:23:35;91680.31;;;-144.48;100.00
4123;BME280;2075;51.062;6.920;2023-03-21T13:26:32;91794.00;;;-144.48;100.00
4123;BME280;2075;51.062;6.920;2023-03-21T13:29:23;90827.75;;;-144.48;100.00
4123;BME280;2075;51.062;6.920;2023-03-21T13:32:17;88226.72;;;-144.48;100.00
4123;BME280;2075;51.062;6.920;2023-03-21T13:35:15;86379.59;;;-144.48;100.00
4123;BME280;2075;51.062;6.920;2023-03-21T13:38:05;85337.88;;;-144.48;100.00
4123;BME280;2075;51.062;6.920;2023-03-21T13:40:57;86651.25;;;-144.48;100.00
4123;BME280;2075;51.062;6.920;2023-03-21T13:43:50;90225.00;;;-144.48;100.00
4123;BME280;2075;51.062;6.920;2023-03-21T13:46:43;93006.25;;;-144.48;100.00
4123;BME280;2075;51.062;6.920;2023-03-21T13:49:31;93140.28;;;-144.48;99.95
4123;BME280;2075;51.062;6.920;2023-03-21T13:52:26;93572.91;;;-144.48;96.74
4123;BME280;2075;51.062;6.920;2023-03-21T13:55:15;93709.00;;;-144.48;94.95
4123;BME280;2075;51.062;6.920;2023-03-21T13:58:21;93599.31;;;-144.48;96.99
4123;BME280;2075;51.062;6.920;2023-03-21T14:01:20;93304.78;;;-144.48;99.24
4123;BME280;2075;51.062;6.920;2023-03-21T14:04:13;93349.47;;;-144.48;98.46
4123;BME280;2075;51.062;6.920;2023-03-21T14:07:04;93103.72;;;-144.48;100.00
4123;BME280;2075;51.062;6.920;2023-03-21T14:09:57;93333.22;;;-144.48;99.34
4123;BME280;2075;51.062;6.920;2023-03-21T14:12:45;92969.69;;;-144.48;100.00
4123;BME280;2075;51.062;6.920;2023-03-21T14:15:38;93217.47;;;-144.48;99.91
4123;BME280;2075;51.062;6.920;2023-03-21T14:18:26;93099.66;;;-144.48;100.00
4123;BME280;2075;51.062;6.920;2023-03-21T14:21:15;92845.81;;;-144.48;100.00
4123;BME280;2075;51.062;6.920;2023-03-21T14:24:03;93134.19;;;-144.48;100.00
4123;BME280;2075;51.062;6.920;2023-03-21T14:26:53;93371.81;;;-144.48;98.93
4123;BME280;2075;51.062;6.920;2023-03-21T14:29:39;93306.81;;;-144.48;100.00
4123;BME280;2075;51.062;6.920;2023-03-21T14:32:26;93359.63;;;-144.48;99.09
4123;BME280;2075;51.062;6.920;2023-03-21T14:35:12;93280.41;;;-144.48;99.92
4123;BME280;2075;51.062;6.920;2023-03-21T14:37:59;93345.41;;;-144.48;98.74
4123;BME280;2075;51.062;6.920;2023-03-21T14:40:46;93530.25;;;-144.48;98.58
4123;BME280;2075;51.062;6.920;2023-03-21T14:43:34;93536.34;;;-144.48;97.32
4123;BME280;2075;51.062;6.920;2023-03-21T14:46:19;93692.75;;;-144.48;95.18
4123;BME280;2075;51.062;6.920;2023-03-21T14:49:13;93546.50;;;-144.48;98.34
4123;BME280;2075;51.062;6.920;2023-03-21T14:52:03;93532.28;;;-144.48;98.02
4123;BME280;2075;51.062;6.920;2023-03-21T14:54:50;93585.09;;;-144.48;97.39
4123;BME280;2075;51.062;6.920;2023-03-21T14:57:36;93522.13;;;-144.48;98.31
4123;BME280;2075;51.062;6.920;2023-03-21T15:00:26;93546.50;;;-144.48;96.46
4123;BME280;2075;51.062;6.920;2023-03-21T15:03:12;93550.56;;;-144.48;96.40